sensor_id;sensor_type;location;lat;lon;timestamp;P1;durP1;ratioP1;P2;durP2;ratioP2
53052;SDS011;38934;52.690;6.184;2023-03-23T00:00:03;12.80;;;8.73;;
53052;SDS011;38934;52.690;6.184;2023-03-23T00:02:30;13.27;;;9.02;;
53052;SDS011;38934;52.690;6.184;2023-03-23T00:05:06;13.07;;;8.98;;
53052;SDS011;38934;52.690;6.184;2023-03-23T00:07:34;13.85;;;8.57;;
53052;SDS011;38934;52.690;6.184;2023-03-23T00:10:00;14.77;;;8.55;;
53052;SDS011;38934;52.690;6.184;2023-03-23T00:12:27;10.90;;;8.23;;
53052;SDS011;38934;52.690;6.184;2023-03-23T00:14:58;12.55;;;8.02;;
53052;SDS011;38934;52.690;6.184;2023-03-23T00:17:32;13.10;;;7.93;;
53052;SDS011;38934;52.690;6.184;2023-03-23T00:19:58;11.15;;;7.60;;
53052;SDS011;38934;52.690;6.184;2023-03-23T00:22:26;10.80;;;7.72;;
53052;SDS011;38934;52.690;6.184;2023-03-23T00:24:52;9.40;;;7.03;;
53052;SDS011;38934;52.690;6.184;2023-03-23T00:27:18;9.38;;;7.20;;
53052;SDS011;38934;52.690;6.184;2023-03-23T00:29:46;11.60;;;7.13;;
53052;SDS011;38934;52.690;6.184;2023-03-23T00:32:17;8.82;;;6.55;;
53052;SDS011;38934;52.690;6.184;2023-03-23T00:34:45;10.25;;;6.82;;
53052;SDS011;38934;52.690;6.184;2023-03-23T00:37:13;12.95;;;7.20;;
53052;SDS011;38934;52.690;6.184;2023-03-23T00:39:41;10.57;;;6.80;;
53052;SDS011;38934;52.690;6.184;2023-03-23T00:42:10;9.18;;;6.38;;
53052;SDS011;38934;52.690;6.184;2023-03-23T00:44:37;10.38;;;6.40;;
53052;SDS011;38934;52.690;6.184;2023-03-23T00:47:04;12.68;;;6.60;;
53052;SDS011;38934;52.690;6.184;2023-03-23T00:49:31;8.95;;;6.35;;
53052;SDS011;38934;52.690;6.184;2023-03-23T00:51:59;13.27;;;6.95;;
53052;SDS011;38934;52.690;6.184;2023-03-23T00:54:26;11.27;;;6.03;;
53052;SDS011;38934;52.690;6.184;2023-03-23T00:56:51;10.80;;;5.97;;
53052;SDS011;38934;52.690;6.184;2023-03-23T00:59:18;8.25;;;6.13;;
53052;SDS011;38934;52.690;6.184;2023-03-23T01:01:44;9.15;;;6.00;;
53052;SDS011;38934;52.690;6.184;2023-03-23T01:04:09;8.02;;;6.00;;
53052;SDS011;38934;52.690;6.184;2023-03-23T01:06:37;9.95;;;6.20;;
53052;SDS011;38934;52.690;6.184;2023-03-23T01:09:14;9.10;;;6.40;;
53052;SDS011;38934;52.690;6.184;2023-03-23T01:11:42;8.32;;;5.57;;
53052;SDS011;38934;52.690;6.184;2023-03-23T01:14:10;10.52;;;5.75;;
53052;SDS011;38934;52.690;6.184;2023-03-23T01:16:36;8.65;;;5.82;;
53052;SDS011;38934;52.690;6.184;2023-03-23T01:19:02;9.23;;;5.50;;
53052;SDS011;38934;52.690;6.184;2023-03-23T01:21:28;9.20;;;5.35;;
53052;SDS011;38934;52.690;6.184;2023-03-23T01:23:54;7.90;;;5.15;;
53052;SDS011;38934;52.690;6.184;2023-03-23T01:26:21;9.02;;;5.60;;
53052;SDS011;38934;52.690;6.184;2023-03-23T01:28:50;10.93;;;5.68;;
53052;SDS011;38934;52.690;6.184;2023-03-23T01:31:17;11.90;;;6.00;;
53052;SDS011;38934;52.690;6.184;2023-03-23T01:33:45;9.07;;;5.45;;
53052;SDS011;38934;52.690;6.184;2023-03-23T01:36:15;11.45;;;5.38;;
53052;SDS011;38934;52.690;6.184;2023-03-23T01:38:43;9.43;;;5.47;;
53052;SDS011;38934;52.690;6.184;2023-03-23T01:41:10;8.95;;;5.18;;
53052;SDS011;38934;52.690;6.184;2023-03-23T01:43:53;10.40;;;5.40;;
53052;SDS011;38934;52.690;6.184;2023-03-23T01:46:25;7.55;;;4.70;;
53052;SDS011;38934;52.690;6.184;2023-03-23T01:48:51;8.15;;;4.90;;
53052;SDS011;38934;52.690;6.184;2023-03-23T01:51:17;7.53;;;5.13;;
53052;SDS011;38934;52.690;6.184;2023-03-23T01:53:46;6.53;;;4.57;;
53052;SDS011;38934;52.690;6.184;2023-03-23T01:56:19;6.18;;;4.60;;
53052;SDS011;38934;52.690;6.184;2023-03-23T01:58:50;9.05;;;4.60;;
53052;SDS011;38934;52.690;6.184;2023-03-23T02:01:17;11.25;;;4.70;;
53052;SDS011;38934;52.690;6.184;2023-03-23T02:03:44;8.65;;;4.32;;
53052;SDS011;38934;52.690;6.184;2023-03-23T02:06:13;7.18;;;4.10;;
53052;SDS011;38934;52.690;6.184;2023-03-23T02:08:39;8.90;;;4.32;;
53052;SDS011;38934;52.690;6.184;2023-03-23T02:11:11;10.38;;;4.82;;
53052;SDS011;38934;52.690;6.184;2023-03-23T02:13:46;9.20;;;4.50;;
53052;SDS011;38934;52.690;6.184;2023-03-23T02:24:28;7.97;;;4.68;;
53052;SDS011;38934;52.690;6.184;2023-03-23T02:30:03;6.90;;;4.00;;
53052;SDS011;38934;52.690;6.184;2023-03-23T02:35:48;7.97;;;4.20;;
53052;SDS011;38934;52.690;6.184;2023-03-23T02:38:20;6.32;;;3.45;;
53052;SDS011;38934;52.690;6.184;2023-03-23T02:40:51;7.47;;;4.25;;
53052;SDS011;38934;52.690;6.184;2023-03-23T02:43:20;9.18;;;3.92;;
53052;SDS011;38934;52.690;6.184;2023-03-23T02:45:49;8.73;;;4.22;;
53052;SDS011;38934;52.690;6.184;2023-03-23T02:48:17;5.82;;;3.80;;
53052;SDS011;38934;52.690;6.184;2023-03-23T02:50:46;8.38;;;3.63;;
53052;SDS011;38934;52.690;6.184;2023-03-23T02:53:15;6.65;;;4.45;;
53052;SDS011;38934;52.690;6.184;2023-03-23T02:55:44;7.35;;;3.75;;
53052;SDS011;38934;52.690;6.184;2023-03-23T02:58:11;5.13;;;3.38;;
53052;SDS011;38934;52.690;6.184;2023-03-23T03:00:37;5.88;;;4.00;;
53052;SDS011;38934;52.690;6.184;2023-03-23T03:03:04;5.85;;;3.92;;
53052;SDS011;38934;52.690;6.184;2023-03-23T03:08:19;6.22;;;3.97;;
53052;SDS011;38934;52.690;6.184;2023-03-23T03:10:55;8.10;;;3.97;;
53052;SDS011;38934;52.690;6.184;2023-03-23T03:16:14;6.68;;;4.15;;
53052;SDS011;38934;52.690;6.184;2023-03-23T03:21:21;6.22;;;3.80;;
53052;SDS011;38934;52.690;6.184;2023-03-23T03:23:50;6.38;;;4.05;;
53052;SDS011;38934;52.690;6.184;2023-03-23T03:26:18;5.93;;;4.00;;
53052;SDS011;38934;52.690;6.184;2023-03-23T03:28:46;6.30;;;4.18;;
53052;SDS011;38934;52.690;6.184;2023-03-23T03:31:14;5.90;;;4.15;;
53052;SDS011;38934;52.690;6.184;2023-03-23T03:33:43;7.05;;;4.28;;
53052;SDS011;38934;52.690;6.184;2023-03-23T03:36:13;6.45;;;4.72;;
53052;SDS011;38934;52.690;6.184;2023-03-23T03:38:45;6.07;;;4.45;;
53052;SDS011;38934;52.690;6.184;2023-03-23T03:41:13;8.63;;;4.85;;
53052;SDS011;38934;52.690;6.184;2023-03-23T03:43:39;8.00;;;4.35;;
53052;SDS011;38934;52.690;6.184;2023-03-23T03:46:05;7.93;;;4.57;;
53052;SDS011;38934;52.690;6.184;2023-03-23T03:48:30;8.02;;;4.80;;
53052;SDS011;38934;52.690;6.184;2023-03-23T03:50:56;6.05;;;4.32;;
53052;SDS011;38934;52.690;6.184;2023-03-23T03:53:22;7.15;;;4.50;;
53052;SDS011;38934;52.690;6.184;2023-03-23T03:55:48;7.80;;;4.50;;
53052;SDS011;38934;52.690;6.184;2023-03-23T03:58:15;8.63;;;4.72;;
53052;SDS011;38934;52.690;6.184;2023-03-23T04:00:41;6.43;;;4.95;;
53052;SDS011;38934;52.690;6.184;2023-03-23T04:03:07;8.00;;;4.72;;
53052;SDS011;38934;52.690;6.184;2023-03-23T04:05:34;6.95;;;4.63;;
53052;SDS011;38934;52.690;6.184;2023-03-23T04:08:01;7.70;;;4.40;;
53052;SDS011;38934;52.690;6.184;2023-03-23T04:10:28;9.40;;;4.97;;
53052;SDS011;38934;52.690;6.184;2023-03-23T04:12:55;8.98;;;5.05;;
53052;SDS011;38934;52.690;6.184;2023-03-23T04:15:21;7.32;;;4.90;;
53052;SDS011;38934;52.690;6.184;2023-03-23T04:17:47;7.43;;;4.68;;
53052;SDS011;38934;52.690;6.184;2023-03-23T04:20:12;6.25;;;4.90;;
53052;SDS011;38934;52.690;6.184;2023-03-23T04:22:42;10.75;;;5.43;;
53052;SDS011;38934;52.690;6.184;2023-03-23T04:25:10;8.18;;;4.85;;
53052;SDS011;38934;52.690;6.184;2023-03-23T04:27:38;9.35;;;4.70;;
53052;SDS011;38934;52.690;6.184;2023-03-23T04:30:08;7.13;;;4.55;;
53052;SDS011;38934;52.690;6.184;2023-03-23T04:32:34;11.18;;;5.30;;
53052;SDS011;38934;52.690;6.184;2023-03-23T04:35:00;9.98;;;5.32;;
53052;SDS011;38934;52.690;6.184;2023-03-23T04:37:27;9.15;;;5.18;;
53052;SDS011;38934;52.690;6.184;2023-03-23T04:39:58;9.48;;;5.60;;
53052;SDS011;38934;52.690;6.184;2023-03-23T04:42:33;10.88;;;5.15;;
53052;SDS011;38934;52.690;6.184;2023-03-23T04:44:59;11.38;;;5.07;;
53052;SDS011;38934;52.690;6.184;2023-03-23T04:47:27;11.93;;;4.78;;
53052;SDS011;38934;52.690;6.184;2023-03-23T04:49:54;9.80;;;4.65;;
53052;SDS011;38934;52.690;6.184;2023-03-23T04:52:24;6.63;;;4.15;;
53052;SDS011;38934;52.690;6.184;2023-03-23T04:54:51;9.77;;;4.10;;
53052;SDS011;38934;52.690;6.184;2023-03-23T04:57:17;9.77;;;3.70;;
53052;SDS011;38934;52.690;6.184;2023-03-23T04:59:43;7.80;;;4.07;;
53052;SDS011;38934;52.690;6.184;2023-03-23T05:02:12;11.15;;;4.20;;
53052;SDS011;38934;52.690;6.184;2023-03-23T05:04:38;9.88;;;4.65;;
53052;SDS011;38934;52.690;6.184;2023-03-23T05:07:05;8.95;;;3.90;;
53052;SDS011;38934;52.690;6.184;2023-03-23T05:09:32;8.55;;;3.85;;
53052;SDS011;38934;52.690;6.184;2023-03-23T05:12:02;9.25;;;3.95;;
53052;SDS011;38934;52.690;6.184;2023-03-23T05:14:32;9.00;;;3.50;;
53052;SDS011;38934;52.690;6.184;2023-03-23T05:16:58;8.07;;;3.40;;
53052;SDS011;38934;52.690;6.184;2023-03-23T05:19:23;10.60;;;3.85;;
53052;SDS011;38934;52.690;6.184;2023-03-23T05:21:49;10.13;;;3.65;;
53052;SDS011;38934;52.690;6.184;2023-03-23T05:24:15;11.38;;;3.88;;
53052;SDS011;38934;52.690;6.184;2023-03-23T05:26:40;8.27;;;3.67;;
53052;SDS011;38934;52.690;6.184;2023-03-23T05:29:06;7.07;;;3.45;;
53052;SDS011;38934;52.690;6.184;2023-03-23T05:31:31;13.75;;;4.00;;
53052;SDS011;38934;52.690;6.184;2023-03-23T05:33:58;9.18;;;3.65;;
53052;SDS011;38934;52.690;6.184;2023-03-23T05:36:23;9.40;;;4.00;;
53052;SDS011;38934;52.690;6.184;2023-03-23T05:38:52;8.35;;;3.75;;
53052;SDS011;38934;52.690;6.184;2023-03-23T05:41:18;7.93;;;3.88;;
53052;SDS011;38934;52.690;6.184;2023-03-23T05:43:43;6.05;;;3.63;;
53052;SDS011;38934;52.690;6.184;2023-03-23T05:46:09;7.43;;;3.20;;
53052;SDS011;38934;52.690;6.184;2023-03-23T05:48:34;6.03;;;3.13;;
53052;SDS011;38934;52.690;6.184;2023-03-23T05:51:01;6.25;;;3.00;;
53052;SDS011;38934;52.690;6.184;2023-03-23T05:53:27;6.65;;;3.20;;
53052;SDS011;38934;52.690;6.184;2023-03-23T05:55:57;9.35;;;3.28;;
53052;SDS011;38934;52.690;6.184;2023-03-23T05:58:24;6.97;;;2.78;;
53052;SDS011;38934;52.690;6.184;2023-03-23T06:00:50;6.55;;;2.95;;
53052;SDS011;38934;52.690;6.184;2023-03-23T06:03:16;7.57;;;3.25;;
53052;SDS011;38934;52.690;6.184;2023-03-23T06:05:42;6.85;;;3.13;;
53052;SDS011;38934;52.690;6.184;2023-03-23T06:08:11;9.20;;;3.45;;
53052;SDS011;38934;52.690;6.184;2023-03-23T06:10:37;8.27;;;3.40;;
53052;SDS011;38934;52.690;6.184;2023-03-23T06:13:03;8.50;;;3.30;;
53052;SDS011;38934;52.690;6.184;2023-03-23T06:15:30;13.07;;;3.92;;
53052;SDS011;38934;52.690;6.184;2023-03-23T06:18:00;9.25;;;3.63;;
53052;SDS011;38934;52.690;6.184;2023-03-23T06:20:27;9.80;;;3.70;;
53052;SDS011;38934;52.690;6.184;2023-03-23T06:22:54;8.65;;;3.35;;
53052;SDS011;38934;52.690;6.184;2023-03-23T06:25:21;13.30;;;4.30;;
53052;SDS011;38934;52.690;6.184;2023-03-23T06:27:47;9.90;;;3.72;;
53052;SDS011;38934;52.690;6.184;2023-03-23T06:30:13;10.88;;;4.00;;
53052;SDS011;38934;52.690;6.184;2023-03-23T06:32:42;14.93;;;4.30;;
53052;SDS011;38934;52.690;6.184;2023-03-23T06:35:11;17.25;;;4.13;;
53052;SDS011;38934;52.690;6.184;2023-03-23T06:37:37;10.10;;;4.30;;
53052;SDS011;38934;52.690;6.184;2023-03-23T06:40:03;15.30;;;4.38;;
53052;SDS011;38934;52.690;6.184;2023-03-23T06:42:33;12.02;;;4.43;;
53052;SDS011;38934;52.690;6.184;2023-03-23T06:44:59;15.07;;;4.80;;
53052;SDS011;38934;52.690;6.184;2023-03-23T06:47:26;12.55;;;4.47;;
53052;SDS011;38934;52.690;6.184;2023-03-23T06:49:54;11.52;;;5.03;;
53052;SDS011;38934;52.690;6.184;2023-03-23T06:52:21;13.57;;;4.82;;
53052;SDS011;38934;52.690;6.184;2023-03-23T06:54:48;10.77;;;4.68;;
53052;SDS011;38934;52.690;6.184;2023-03-23T06:57:14;11.05;;;4.63;;
53052;SDS011;38934;52.690;6.184;2023-03-23T06:59:39;13.30;;;4.78;;
53052;SDS011;38934;52.690;6.184;2023-03-23T07:02:07;8.48;;;4.55;;
53052;SDS011;38934;52.690;6.184;2023-03-23T07:04:40;10.82;;;4.78;;
53052;SDS011;38934;52.690;6.184;2023-03-23T07:07:09;10.20;;;4.95;;
53052;SDS011;38934;52.690;6.184;2023-03-23T07:09:37;11.73;;;4.82;;
53052;SDS011;38934;52.690;6.184;2023-03-23T07:12:04;12.45;;;5.38;;
53052;SDS011;38934;52.690;6.184;2023-03-23T07:14:30;13.48;;;5.00;;
53052;SDS011;38934;52.690;6.184;2023-03-23T07:16:56;13.30;;;4.78;;
53052;SDS011;38934;52.690;6.184;2023-03-23T07:19:21;11.55;;;4.38;;
53052;SDS011;38934;52.690;6.184;2023-03-23T07:21:47;11.77;;;4.43;;
53052;SDS011;38934;52.690;6.184;2023-03-23T07:24:14;12.25;;;4.63;;
53052;SDS011;38934;52.690;6.184;2023-03-23T07:26:42;13.68;;;4.32;;
53052;SDS011;38934;52.690;6.184;2023-03-23T07:29:08;13.38;;;4.22;;
53052;SDS011;38934;52.690;6.184;2023-03-23T07:31:34;11.73;;;4.07;;
53052;SDS011;38934;52.690;6.184;2023-03-23T07:34:00;16.42;;;4.30;;
53052;SDS011;38934;52.690;6.184;2023-03-23T07:36:28;11.98;;;4.38;;
53052;SDS011;38934;52.690;6.184;2023-03-23T07:38:54;15.70;;;4.15;;
53052;SDS011;38934;52.690;6.184;2023-03-23T07:41:20;10.50;;;3.85;;
53052;SDS011;38934;52.690;6.184;2023-03-23T07:43:45;15.05;;;4.78;;
53052;SDS011;38934;52.690;6.184;2023-03-23T07:46:12;13.02;;;4.00;;
53052;SDS011;38934;52.690;6.184;2023-03-23T07:48:38;13.80;;;4.22;;
53052;SDS011;38934;52.690;6.184;2023-03-23T07:51:04;12.50;;;3.95;;
53052;SDS011;38934;52.690;6.184;2023-03-23T07:53:32;11.18;;;4.72;;
53052;SDS011;38934;52.690;6.184;2023-03-23T07:55:58;14.55;;;4.65;;
53052;SDS011;38934;52.690;6.184;2023-03-23T07:58:24;12.57;;;4.20;;
53052;SDS011;38934;52.690;6.184;2023-03-23T08:00:51;12.18;;;4.15;;
53052;SDS011;38934;52.690;6.184;2023-03-23T08:03:17;15.57;;;4.43;;
53052;SDS011;38934;52.690;6.184;2023-03-23T08:05:43;19.33;;;4.95;;
53052;SDS011;38934;52.690;6.184;2023-03-23T08:08:09;15.88;;;4.72;;
53052;SDS011;38934;52.690;6.184;2023-03-23T08:10:35;13.32;;;4.05;;
53052;SDS011;38934;52.690;6.184;2023-03-23T08:13:01;17.08;;;5.38;;
53052;SDS011;38934;52.690;6.184;2023-03-23T08:15:28;11.82;;;4.38;;
53052;SDS011;38934;52.690;6.184;2023-03-23T08:17:54;17.27;;;4.80;;
53052;SDS011;38934;52.690;6.184;2023-03-23T08:20:20;15.50;;;4.78;;
53052;SDS011;38934;52.690;6.184;2023-03-23T08:22:53;15.85;;;4.45;;
53052;SDS011;38934;52.690;6.184;2023-03-23T08:25:21;18.45;;;5.10;;
53052;SDS011;38934;52.690;6.184;2023-03-23T08:27:49;15.00;;;4.88;;
53052;SDS011;38934;52.690;6.184;2023-03-23T08:30:16;15.63;;;4.80;;
53052;SDS011;38934;52.690;6.184;2023-03-23T08:32:44;18.55;;;4.78;;
53052;SDS011;38934;52.690;6.184;2023-03-23T08:35:10;14.85;;;4.68;;
53052;SDS011;38934;52.690;6.184;2023-03-23T08:37:37;14.55;;;4.47;;
53052;SDS011;38934;52.690;6.184;2023-03-23T08:40:04;17.20;;;5.18;;
53052;SDS011;38934;52.690;6.184;2023-03-23T08:42:40;12.75;;;5.65;;
53052;SDS011;38934;52.690;6.184;2023-03-23T08:45:11;16.25;;;4.80;;
53052;SDS011;38934;52.690;6.184;2023-03-23T08:47:40;15.40;;;5.05;;
53052;SDS011;38934;52.690;6.184;2023-03-23T08:50:07;15.90;;;4.88;;
53052;SDS011;38934;52.690;6.184;2023-03-23T08:52:35;14.65;;;4.28;;
53052;SDS011;38934;52.690;6.184;2023-03-23T08:55:02;16.67;;;4.32;;
53052;SDS011;38934;52.690;6.184;2023-03-23T08:57:28;13.20;;;4.53;;
53052;SDS011;38934;52.690;6.184;2023-03-23T08:59:54;15.45;;;5.03;;
53052;SDS011;38934;52.690;6.184;2023-03-23T09:02:25;15.35;;;4.70;;
53052;SDS011;38934;52.690;6.184;2023-03-23T09:04:52;16.52;;;4.88;;
53052;SDS011;38934;52.690;6.184;2023-03-23T09:07:18;14.75;;;4.65;;
53052;SDS011;38934;52.690;6.184;2023-03-23T09:09:44;12.15;;;4.32;;
53052;SDS011;38934;52.690;6.184;2023-03-23T09:12:10;15.82;;;4.30;;
53052;SDS011;38934;52.690;6.184;2023-03-23T09:14:37;11.50;;;3.90;;
53052;SDS011;38934;52.690;6.184;2023-03-23T09:17:03;16.35;;;4.53;;
53052;SDS011;38934;52.690;6.184;2023-03-23T09:19:30;17.25;;;5.85;;
53052;SDS011;38934;52.690;6.184;2023-03-23T09:21:58;14.50;;;5.10;;
53052;SDS011;38934;52.690;6.184;2023-03-23T09:24:24;15.75;;;4.40;;
53052;SDS011;38934;52.690;6.184;2023-03-23T09:26:50;14.63;;;4.43;;
53052;SDS011;38934;52.690;6.184;2023-03-23T09:29:16;11.10;;;4.57;;
53052;SDS011;38934;52.690;6.184;2023-03-23T09:31:43;13.38;;;4.13;;
53052;SDS011;38934;52.690;6.184;2023-03-23T09:34:11;10.70;;;3.70;;
53052;SDS011;38934;52.690;6.184;2023-03-23T09:36:37;11.43;;;3.33;;
53052;SDS011;38934;52.690;6.184;2023-03-23T09:39:05;14.13;;;4.18;;
53052;SDS011;38934;52.690;6.184;2023-03-23T09:47:10;13.63;;;4.10;;
53052;SDS011;38934;52.690;6.184;2023-03-23T09:49:52;11.48;;;4.10;;
53052;SDS011;38934;52.690;6.184;2023-03-23T09:52:19;11.90;;;4.40;;
53052;SDS011;38934;52.690;6.184;2023-03-23T09:54:51;10.50;;;3.72;;
53052;SDS011;38934;52.690;6.184;2023-03-23T10:00:20;7.95;;;3.40;;
53052;SDS011;38934;52.690;6.184;2023-03-23T10:02:55;8.45;;;3.28;;
53052;SDS011;38934;52.690;6.184;2023-03-23T10:07:59;11.18;;;3.50;;
53052;SDS011;38934;52.690;6.184;2023-03-23T10:10:39;9.07;;;3.10;;
53052;SDS011;38934;52.690;6.184;2023-03-23T10:16:00;9.45;;;3.03;;
53052;SDS011;38934;52.690;6.184;2023-03-23T10:21:07;11.80;;;2.97;;
53052;SDS011;38934;52.690;6.184;2023-03-23T10:28:54;11.55;;;3.60;;
53052;SDS011;38934;52.690;6.184;2023-03-23T10:31:39;7.13;;;2.97;;
53052;SDS011;38934;52.690;6.184;2023-03-23T10:34:13;10.77;;;3.10;;
53052;SDS011;38934;52.690;6.184;2023-03-23T10:39:27;9.85;;;3.25;;
53052;SDS011;38934;52.690;6.184;2023-03-23T10:41:59;7.50;;;3.03;;
53052;SDS011;38934;52.690;6.184;2023-03-23T10:44:32;11.05;;;3.00;;
53052;SDS011;38934;52.690;6.184;2023-03-23T10:47:02;11.82;;;3.25;;
53052;SDS011;38934;52.690;6.184;2023-03-23T10:49:33;14.38;;;3.22;;
53052;SDS011;38934;52.690;6.184;2023-03-23T10:54:46;10.90;;;3.28;;
53052;SDS011;38934;52.690;6.184;2023-03-23T10:57:20;9.05;;;3.17;;
53052;SDS011;38934;52.690;6.184;2023-03-23T10:59:57;9.48;;;3.08;;
53052;SDS011;38934;52.690;6.184;2023-03-23T11:02:32;13.20;;;3.55;;
53052;SDS011;38934;52.690;6.184;2023-03-23T11:05:06;11.57;;;3.25;;
53052;SDS011;38934;52.690;6.184;2023-03-23T11:07:40;7.50;;;3.10;;
53052;SDS011;38934;52.690;6.184;2023-03-23T11:10:11;12.18;;;3.30;;
53052;SDS011;38934;52.690;6.184;2023-03-23T11:12:44;11.07;;;2.90;;
53052;SDS011;38934;52.690;6.184;2023-03-23T11:15:26;8.48;;;2.50;;
53052;SDS011;38934;52.690;6.184;2023-03-23T11:17:58;12.90;;;2.90;;
53052;SDS011;38934;52.690;6.184;2023-03-23T11:20:26;9.90;;;2.72;;
53052;SDS011;38934;52.690;6.184;2023-03-23T11:22:54;9.15;;;2.90;;
53052;SDS011;38934;52.690;6.184;2023-03-23T11:25:20;10.13;;;3.00;;
53052;SDS011;38934;52.690;6.184;2023-03-23T11:27:46;11.52;;;3.50;;
53052;SDS011;38934;52.690;6.184;2023-03-23T11:30:24;8.82;;;2.95;;
53052;SDS011;38934;52.690;6.184;2023-03-23T11:32:52;11.73;;;3.33;;
53052;SDS011;38934;52.690;6.184;2023-03-23T11:35:20;8.30;;;2.63;;
53052;SDS011;38934;52.690;6.184;2023-03-23T11:37:57;7.57;;;2.78;;
53052;SDS011;38934;52.690;6.184;2023-03-23T11:40:27;8.75;;;2.67;;
53052;SDS011;38934;52.690;6.184;2023-03-23T11:42:58;9.70;;;2.50;;
53052;SDS011;38934;52.690;6.184;2023-03-23T11:45:33;9.80;;;2.60;;
53052;SDS011;38934;52.690;6.184;2023-03-23T11:50:54;9.50;;;2.58;;
53052;SDS011;38934;52.690;6.184;2023-03-23T11:58:37;8.65;;;2.85;;
53052;SDS011;38934;52.690;6.184;2023-03-23T12:01:11;13.52;;;2.80;;
53052;SDS011;38934;52.690;6.184;2023-03-23T12:04:28;12.30;;;2.85;;
53052;SDS011;38934;52.690;6.184;2023-03-23T12:22:57;12.02;;;2.88;;
53052;SDS011;38934;52.690;6.184;2023-03-23T12:25:49;9.68;;;3.20;;
53052;SDS011;38934;52.690;6.184;2023-03-23T12:28:31;10.13;;;2.80;;
53052;SDS011;38934;52.690;6.184;2023-03-23T12:33:54;11.98;;;3.05;;
53052;SDS011;38934;52.690;6.184;2023-03-23T12:42:08;8.43;;;2.47;;
53052;SDS011;38934;52.690;6.184;2023-03-23T12:44:45;10.70;;;2.80;;
53052;SDS011;38934;52.690;6.184;2023-03-23T12:53:06;9.18;;;2.97;;
53052;SDS011;38934;52.690;6.184;2023-03-23T12:55:47;7.00;;;2.22;;
53052;SDS011;38934;52.690;6.184;2023-03-23T12:58:18;12.90;;;2.40;;
53052;SDS011;38934;52.690;6.184;2023-03-23T13:00:55;11.43;;;2.78;;
53052;SDS011;38934;52.690;6.184;2023-03-23T13:03:33;10.38;;;2.70;;
53052;SDS011;38934;52.690;6.184;2023-03-23T13:06:23;8.65;;;2.47;;
53052;SDS011;38934;52.690;6.184;2023-03-23T13:11:43;10.32;;;2.70;;
53052;SDS011;38934;52.690;6.184;2023-03-23T13:25:15;12.23;;;2.67;;
53052;SDS011;38934;52.690;6.184;2023-03-23T13:28:03;10.85;;;2.78;;
53052;SDS011;38934;52.690;6.184;2023-03-23T13:30:29;10.27;;;2.40;;
53052;SDS011;38934;52.690;6.184;2023-03-23T13:33:11;11.40;;;2.95;;
53052;SDS011;38934;52.690;6.184;2023-03-23T13:35:38;13.73;;;2.47;;
53052;SDS011;38934;52.690;6.184;2023-03-23T13:38:15;8.50;;;2.38;;
53052;SDS011;38934;52.690;6.184;2023-03-23T13:40:53;10.10;;;2.35;;
53052;SDS011;38934;52.690;6.184;2023-03-23T13:43:30;11.23;;;2.60;;
53052;SDS011;38934;52.690;6.184;2023-03-23T13:46:12;8.88;;;2.38;;
53052;SDS011;38934;52.690;6.184;2023-03-23T13:51:31;10.00;;;2.85;;
53052;SDS011;38934;52.690;6.184;2023-03-23T13:56:41;10.55;;;2.38;;
53052;SDS011;38934;52.690;6.184;2023-03-23T13:59:32;7.32;;;2.45;;
53052;SDS011;38934;52.690;6.184;2023-03-23T14:04:55;12.93;;;3.53;;
53052;SDS011;38934;52.690;6.184;2023-03-23T14:07:22;9.57;;;2.60;;
53052;SDS011;38934;52.690;6.184;2023-03-23T14:09:49;10.70;;;3.03;;
53052;SDS011;38934;52.690;6.184;2023-03-23T14:12:22;7.00;;;2.83;;
53052;SDS011;38934;52.690;6.184;2023-03-23T14:14:56;9.50;;;3.35;;
53052;SDS011;38934;52.690;6.184;2023-03-23T14:17:31;9.68;;;2.67;;
53052;SDS011;38934;52.690;6.184;2023-03-23T14:19:59;12.82;;;3.80;;
53052;SDS011;38934;52.690;6.184;2023-03-23T14:22:27;11.55;;;3.03;;
53052;SDS011;38934;52.690;6.184;2023-03-23T14:25:12;12.20;;;3.67;;
53052;SDS011;38934;52.690;6.184;2023-03-23T14:27:43;12.50;;;3.28;;
53052;SDS011;38934;52.690;6.184;2023-03-23T14:30:14;11.73;;;3.58;;
53052;SDS011;38934;52.690;6.184;2023-03-23T14:32:45;10.18;;;3.22;;
53052;SDS011;38934;52.690;6.184;2023-03-23T14:37:51;10.93;;;3.25;;
53052;SDS011;38934;52.690;6.184;2023-03-23T14:40:17;14.00;;;3.65;;
53052;SDS011;38934;52.690;6.184;2023-03-23T14:42:43;14.07;;;3.33;;
53052;SDS011;38934;52.690;6.184;2023-03-23T14:45:11;10.60;;;3.05;;
53052;SDS011;38934;52.690;6.184;2023-03-23T14:47:43;9.43;;;2.80;;
53052;SDS011;38934;52.690;6.184;2023-03-23T14:50:25;8.52;;;2.88;;
53052;SDS011;38934;52.690;6.184;2023-03-23T14:53:07;10.63;;;2.83;;
53052;SDS011;38934;52.690;6.184;2023-03-23T14:55:47;9.65;;;3.10;;
53052;SDS011;38934;52.690;6.184;2023-03-23T14:58:16;10.60;;;3.15;;
53052;SDS011;38934;52.690;6.184;2023-03-23T15:00:47;12.80;;;3.10;;
53052;SDS011;38934;52.690;6.184;2023-03-23T15:03:21;9.10;;;2.70;;
53052;SDS011;38934;52.690;6.184;2023-03-23T15:05:58;11.73;;;2.75;;
53052;SDS011;38934;52.690;6.184;2023-03-23T15:08:28;10.02;;;2.70;;
53052;SDS011;38934;52.690;6.184;2023-03-23T15:11:08;10.82;;;3.10;;
53052;SDS011;38934;52.690;6.184;2023-03-23T15:13:42;10.30;;;2.80;;
53052;SDS011;38934;52.690;6.184;2023-03-23T15:16:14;10.38;;;2.90;;
53052;SDS011;38934;52.690;6.184;2023-03-23T15:19:34;11.98;;;3.08;;
53052;SDS011;38934;52.690;6.184;2023-03-23T15:24:41;8.93;;;3.08;;
53052;SDS011;38934;52.690;6.184;2023-03-23T15:29:45;9.32;;;3.10;;
53052;SDS011;38934;52.690;6.184;2023-03-23T15:32:28;10.00;;;3.00;;
53052;SDS011;38934;52.690;6.184;2023-03-23T15:34:56;10.38;;;2.90;;
53052;SDS011;38934;52.690;6.184;2023-03-23T15:37:29;8.60;;;2.65;;
53052;SDS011;38934;52.690;6.184;2023-03-23T15:39:57;11.82;;;2.72;;
53052;SDS011;38934;52.690;6.184;2023-03-23T15:42:31;8.32;;;3.35;;
53052;SDS011;38934;52.690;6.184;2023-03-23T15:52:39;11.93;;;3.00;;
53052;SDS011;38934;52.690;6.184;2023-03-23T15:58:10;11.25;;;2.83;;
53052;SDS011;38934;52.690;6.184;2023-03-23T16:00:37;14.85;;;3.05;;
53052;SDS011;38934;52.690;6.184;2023-03-23T16:03:05;10.10;;;2.85;;
53052;SDS011;38934;52.690;6.184;2023-03-23T16:05:33;11.90;;;3.58;;
53052;SDS011;38934;52.690;6.184;2023-03-23T16:07:59;9.95;;;3.28;;
53052;SDS011;38934;52.690;6.184;2023-03-23T16:10:26;11.98;;;2.55;;
53052;SDS011;38934;52.690;6.184;2023-03-23T16:12:53;11.20;;;3.58;;
53052;SDS011;38934;52.690;6.184;2023-03-23T16:15:19;9.93;;;2.97;;
53052;SDS011;38934;52.690;6.184;2023-03-23T16:17:45;8.70;;;3.38;;
53052;SDS011;38934;52.690;6.184;2023-03-23T16:20:12;8.02;;;2.75;;
53052;SDS011;38934;52.690;6.184;2023-03-23T16:22:39;8.25;;;2.50;;
53052;SDS011;38934;52.690;6.184;2023-03-23T16:25:05;7.15;;;2.35;;
53052;SDS011;38934;52.690;6.184;2023-03-23T16:27:31;5.10;;;2.00;;
53052;SDS011;38934;52.690;6.184;2023-03-23T16:29:57;5.90;;;1.90;;
53052;SDS011;38934;52.690;6.184;2023-03-23T16:32:24;2.85;;;1.75;;
53052;SDS011;38934;52.690;6.184;2023-03-23T16:34:50;4.10;;;1.60;;
53052;SDS011;38934;52.690;6.184;2023-03-23T16:37:16;4.90;;;1.70;;
53052;SDS011;38934;52.690;6.184;2023-03-23T16:39:42;4.22;;;1.60;;
53052;SDS011;38934;52.690;6.184;2023-03-23T16:42:07;4.53;;;2.05;;
53052;SDS011;38934;52.690;6.184;2023-03-23T16:44:33;3.65;;;1.52;;
53052;SDS011;38934;52.690;6.184;2023-03-23T16:46:59;4.63;;;1.45;;
53052;SDS011;38934;52.690;6.184;2023-03-23T16:49:24;4.13;;;1.60;;
53052;SDS011;38934;52.690;6.184;2023-03-23T16:51:50;6.20;;;2.15;;
53052;SDS011;38934;52.690;6.184;2023-03-23T16:54:16;6.05;;;2.17;;
53052;SDS011;38934;52.690;6.184;2023-03-23T16:56:41;7.07;;;2.60;;
53052;SDS011;38934;52.690;6.184;2023-03-23T16:59:10;7.43;;;2.13;;
53052;SDS011;38934;52.690;6.184;2023-03-23T17:01:37;7.05;;;2.20;;